sensor_id;sensor_type;location;lat;lon;timestamp;temperature;humidity
54431;DHT22;40342;52.998;5.862;2023-06-24T00:02:16;17.90;99.90
54431;DHT22;40342;52.998;5.862;2023-06-24T00:04:42;17.90;99.90
54431;DHT22;40342;52.998;5.862;2023-06-24T00:07:08;17.80;99.90
54431;DHT22;40342;52.998;5.862;2023-06-24T00:09:33;17.70;99.90
54431;DHT22;40342;52.998;5.862;2023-06-24T00:11:59;17.70;99.90
54431;DHT22;40342;52.998;5.862;2023-06-24T00:14:25;17.70;99.90
54431;DHT22;40342;52.998;5.862;2023-06-24T00:16:52;17.70;99.90
54431;DHT22;40342;52.998;5.862;2023-06-24T00:19:25;17.60;99.90
54431;DHT22;40342;52.998;5.862;2023-06-24T00:21:52;17.70;99.90
54431;DHT22;40342;52.998;5.862;2023-06-24T00:24:18;17.60;99.90
54431;DHT22;40342;52.998;5.862;2023-06-24T00:26:46;17.50;99.90
54431;DHT22;40342;52.998;5.862;2023-06-24T00:29:11;17.50;99.90
54431;DHT22;40342;52.998;5.862;2023-06-24T00:31:37;17.50;99.90
54431;DHT22;40342;52.998;5.862;2023-06-24T00:34:02;17.40;99.90
54431;DHT22;40342;52.998;5.862;2023-06-24T00:36:28;17.40;99.90
54431;DHT22;40342;52.998;5.862;2023-06-24T00:38:55;17.40;99.90
54431;DHT22;40342;52.998;5.862;2023-06-24T00:41:20;17.40;99.90
54431;DHT22;40342;52.998;5.862;2023-06-24T00:43:46;17.40;99.90
54431;DHT22;40342;52.998;5.862;2023-06-24T00:46:12;17.40;99.90
54431;DHT22;40342;52.998;5.862;2023-06-24T00:48:39;17.40;99.90
54431;DHT22;40342;52.998;5.862;2023-06-24T00:51:04;17.30;99.90
54431;DHT22;40342;52.998;5.862;2023-06-24T00:53:30;17.40;99.90
54431;DHT22;40342;52.998;5.862;2023-06-24T00:55:56;17.30;99.90
54431;DHT22;40342;52.998;5.862;2023-06-24T00:58:28;17.30;99.90
54431;DHT22;40342;52.998;5.862;2023-06-24T01:00:56;17.30;99.90
54431;DHT22;40342;52.998;5.862;2023-06-24T01:03:26;17.30;99.90
54431;DHT22;40342;52.998;5.862;2023-06-24T01:05:54;17.30;99.90
54431;DHT22;40342;52.998;5.862;2023-06-24T01:08:20;17.20;99.90
54431;DHT22;40342;52.998;5.862;2023-06-24T01:10:48;17.20;99.90
54431;DHT22;40342;52.998;5.862;2023-06-24T01:13:15;17.20;99.90
54431;DHT22;40342;52.998;5.862;2023-06-24T01:15:40;17.20;99.90
54431;DHT22;40342;52.998;5.862;2023-06-24T01:21:01;17.20;99.90
54431;DHT22;40342;52.998;5.862;2023-06-24T01:24:03;17.10;99.90
54431;DHT22;40342;52.998;5.862;2023-06-24T01:26:59;17.10;99.90
54431;DHT22;40342;52.998;5.862;2023-06-24T01:29:47;17.00;99.90
54431;DHT22;40342;52.998;5.862;2023-06-24T01:32:25;16.90;99.90
54431;DHT22;40342;52.998;5.862;2023-06-24T01:35:06;16.90;99.90
54431;DHT22;40342;52.998;5.862;2023-06-24T01:37:41;16.90;99.90
54431;DHT22;40342;52.998;5.862;2023-06-24T01:42:53;16.90;99.90
54431;DHT22;40342;52.998;5.862;2023-06-24T01:45:26;16.80;99.90
54431;DHT22;40342;52.998;5.862;2023-06-24T01:48:15;16.80;99.90
54431;DHT22;40342;52.998;5.862;2023-06-24T01:51:27;16.80;99.90
54431;DHT22;40342;52.998;5.862;2023-06-24T01:53:36;16.80;99.90
54431;DHT22;40342;52.998;5.862;2023-06-24T01:56:06;16.80;99.90
54431;DHT22;40342;52.998;5.862;2023-06-24T01:58:32;16.70;99.90
54431;DHT22;40342;52.998;5.862;2023-06-24T02:01:01;16.60;99.90
54431;DHT22;40342;52.998;5.862;2023-06-24T02:03:28;16.60;99.90
54431;DHT22;40342;52.998;5.862;2023-06-24T02:05:54;16.50;99.90
54431;DHT22;40342;52.998;5.862;2023-06-24T02:08:21;16.50;99.90
54431;DHT22;40342;52.998;5.862;2023-06-24T02:10:48;16.50;99.90
54431;DHT22;40342;52.998;5.862;2023-06-24T02:13:16;16.50;99.90
54431;DHT22;40342;52.998;5.862;2023-06-24T02:15:43;16.50;99.90
54431;DHT22;40342;52.998;5.862;2023-06-24T02:18:11;16.50;99.90
54431;DHT22;40342;52.998;5.862;2023-06-24T02:20:39;16.50;99.90
54431;DHT22;40342;52.998;5.862;2023-06-24T02:23:07;16.50;99.90
54431;DHT22;40342;52.998;5.862;2023-06-24T02:25:34;16.50;99.90
54431;DHT22;40342;52.998;5.862;2023-06-24T02:28:00;16.60;99.90
54431;DHT22;40342;52.998;5.862;2023-06-24T02:30:26;16.60;99.90
54431;DHT22;40342;52.998;5.862;2023-06-24T02:32:52;16.60;99.90
54431;DHT22;40342;52.998;5.862;2023-06-24T02:35:18;16.60;99.90
54431;DHT22;40342;52.998;5.862;2023-06-24T02:37:44;16.60;99.90
54431;DHT22;40342;52.998;5.862;2023-06-24T02:40:10;16.60;99.90
54431;DHT22;40342;52.998;5.862;2023-06-24T02:42:36;16.60;99.90
54431;DHT22;40342;52.998;5.862;2023-06-24T02:45:03;16.60;99.90
54431;DHT22;40342;52.998;5.862;2023-06-24T02:47:29;16.60;99.90
54431;DHT22;40342;52.998;5.862;2023-06-24T02:49:56;16.60;99.90
54431;DHT22;40342;52.998;5.862;2023-06-24T02:52:23;16.50;99.90
54431;DHT22;40342;52.998;5.862;2023-06-24T02:54:49;16.50;99.90
54431;DHT22;40342;52.998;5.862;2023-06-24T02:57:15;16.60;99.90
54431;DHT22;40342;52.998;5.862;2023-06-24T02:59:41;16.50;99.90
54431;DHT22;40342;52.998;5.862;2023-06-24T03:02:06;16.50;99.90
54431;DHT22;40342;52.998;5.862;2023-06-24T03:04:33;16.50;99.90
54431;DHT22;40342;52.998;5.862;2023-06-24T03:06:59;16.50;99.90
54431;DHT22;40342;52.998;5.862;2023-06-24T03:09:27;16.50;99.90
54431;DHT22;40342;52.998;5.862;2023-06-24T03:11:52;16.50;99.90
54431;DHT22;40342;52.998;5.862;2023-06-24T03:14:19;16.50;99.90
54431;DHT22;40342;52.998;5.862;2023-06-24T03:16:45;16.50;99.90
54431;DHT22;40342;52.998;5.862;2023-06-24T03:19:10;16.50;99.90
54431;DHT22;40342;52.998;5.862;2023-06-24T03:21:36;16.50;99.90
54431;DHT22;40342;52.998;5.862;2023-06-24T03:24:01;16.50;99.90
54431;DHT22;40342;52.998;5.862;2023-06-24T03:26:35;16.50;99.90
54431;DHT22;40342;52.998;5.862;2023-06-24T03:29:01;16.50;99.90
54431;DHT22;40342;52.998;5.862;2023-06-24T03:31:27;16.50;99.90
54431;DHT22;40342;52.998;5.862;2023-06-24T03:33:52;16.40;99.90
54431;DHT22;40342;52.998;5.862;2023-06-24T03:36:18;16.50;99.90
54431;DHT22;40342;52.998;5.862;2023-06-24T03:38:43;16.50;99.90
54431;DHT22;40342;52.998;5.862;2023-06-24T03:41:09;16.50;99.90
54431;DHT22;40342;52.998;5.862;2023-06-24T03:43:34;16.50;99.90
54431;DHT22;40342;52.998;5.862;2023-06-24T03:46:00;16.50;99.90
54431;DHT22;40342;52.998;5.862;2023-06-24T03:48:26;16.50;99.90
54431;DHT22;40342;52.998;5.862;2023-06-24T03:50:51;16.50;99.90
54431;DHT22;40342;52.998;5.862;2023-06-24T03:53:17;16.50;99.90
54431;DHT22;40342;52.998;5.862;2023-06-24T03:55:42;16.50;99.90
54431;DHT22;40342;52.998;5.862;2023-06-24T03:58:08;16.60;99.90
54431;DHT22;40342;52.998;5.862;2023-06-24T04:00:34;16.60;99.90
54431;DHT22;40342;52.998;5.862;2023-06-24T04:03:04;16.60;99.90
54431;DHT22;40342;52.998;5.862;2023-06-24T04:05:30;16.60;99.90
54431;DHT22;40342;52.998;5.862;2023-06-24T04:07:55;16.60;99.90
54431;DHT22;40342;52.998;5.862;2023-06-24T04:10:21;16.60;99.90
54431;DHT22;40342;52.998;5.862;2023-06-24T04:12:46;16.60;99.90
54431;DHT22;40342;52.998;5.862;2023-06-24T04:15:12;16.60;99.90
54431;DHT22;40342;52.998;5.862;2023-06-24T04:17:38;16.60;99.90
54431;DHT22;40342;52.998;5.862;2023-06-24T04:20:03;16.60;99.90
54431;DHT22;40342;52.998;5.862;2023-06-24T04:22:32;16.60;99.90
54431;DHT22;40342;52.998;5.862;2023-06-24T04:24:57;16.70;99.90
54431;DHT22;40342;52.998;5.862;2023-06-24T04:27:23;16.70;99.90
54431;DHT22;40342;52.998;5.862;2023-06-24T04:29:49;16.70;99.90
54431;DHT22;40342;52.998;5.862;2023-06-24T04:32:14;16.70;99.90
54431;DHT22;40342;52.998;5.862;2023-06-24T04:34:40;16.70;99.90
54431;DHT22;40342;52.998;5.862;2023-06-24T04:37:05;16.70;99.90
54431;DHT22;40342;52.998;5.862;2023-06-24T04:39:31;16.70;99.90
54431;DHT22;40342;52.998;5.862;2023-06-24T04:41:57;16.70;99.90
54431;DHT22;40342;52.998;5.862;2023-06-24T04:44:22;16.80;99.90
54431;DHT22;40342;52.998;5.862;2023-06-24T04:46:48;16.80;99.90
54431;DHT22;40342;52.998;5.862;2023-06-24T04:49:13;16.90;99.90
54431;DHT22;40342;52.998;5.862;2023-06-24T04:51:39;16.90;99.90
54431;DHT22;40342;52.998;5.862;2023-06-24T04:54:06;16.90;99.90
54431;DHT22;40342;52.998;5.862;2023-06-24T04:56:33;16.90;99.90
54431;DHT22;40342;52.998;5.862;2023-06-24T04:59:00;17.00;99.90
54431;DHT22;40342;52.998;5.862;2023-06-24T05:01:26;17.00;99.90
54431;DHT22;40342;52.998;5.862;2023-06-24T05:03:51;17.00;99.90
54431;DHT22;40342;52.998;5.862;2023-06-24T05:06:17;17.10;99.90
54431;DHT22;40342;52.998;5.862;2023-06-24T05:08:43;17.10;99.90
54431;DHT22;40342;52.998;5.862;2023-06-24T05:11:08;17.10;99.90
54431;DHT22;40342;52.998;5.862;2023-06-24T05:13:34;17.10;99.90
54431;DHT22;40342;52.998;5.862;2023-06-24T05:15:59;17.20;99.90
54431;DHT22;40342;52.998;5.862;2023-06-24T05:18:25;17.20;99.90
54431;DHT22;40342;52.998;5.862;2023-06-24T05:20:50;17.30;99.90
54431;DHT22;40342;52.998;5.862;2023-06-24T05:23:16;17.30;99.90
54431;DHT22;40342;52.998;5.862;2023-06-24T05:25:41;17.40;99.90
54431;DHT22;40342;52.998;5.862;2023-06-24T05:28:07;17.40;99.90
54431;DHT22;40342;52.998;5.862;2023-06-24T05:30:32;17.40;99.90
54431;DHT22;40342;52.998;5.862;2023-06-24T05:32:58;17.50;99.90
54431;DHT22;40342;52.998;5.862;2023-06-24T05:35:23;17.60;99.90
54431;DHT22;40342;52.998;5.862;2023-06-24T05:37:49;17.60;99.90
54431;DHT22;40342;52.998;5.862;2023-06-24T05:40:14;17.70;99.90
54431;DHT22;40342;52.998;5.862;2023-06-24T05:42:40;17.70;99.90
54431;DHT22;40342;52.998;5.862;2023-06-24T05:45:06;17.80;99.90
54431;DHT22;40342;52.998;5.862;2023-06-24T05:47:32;18.00;99.90
54431;DHT22;40342;52.998;5.862;2023-06-24T05:49:58;18.00;99.90
54431;DHT22;40342;52.998;5.862;2023-06-24T05:52:24;18.20;99.90
54431;DHT22;40342;52.998;5.862;2023-06-24T05:54:50;18.30;99.90
54431;DHT22;40342;52.998;5.862;2023-06-24T05:57:15;18.40;99.90
54431;DHT22;40342;52.998;5.862;2023-06-24T05:59:41;18.50;99.90
54431;DHT22;40342;52.998;5.862;2023-06-24T06:02:07;18.60;99.90
54431;DHT22;40342;52.998;5.862;2023-06-24T06:04:32;18.70;99.90
54431;DHT22;40342;52.998;5.862;2023-06-24T06:06:58;18.80;99.90
54431;DHT22;40342;52.998;5.862;2023-06-24T06:09:23;18.80;99.90
54431;DHT22;40342;52.998;5.862;2023-06-24T06:11:49;18.90;99.90
54431;DHT22;40342;52.998;5.862;2023-06-24T06:14:14;19.00;99.90
54431;DHT22;40342;52.998;5.862;2023-06-24T06:16:40;19.10;99.90
54431;DHT22;40342;52.998;5.862;2023-06-24T06:19:06;19.10;99.90
54431;DHT22;40342;52.998;5.862;2023-06-24T06:21:31;19.20;99.90
54431;DHT22;40342;52.998;5.862;2023-06-24T06:23:57;19.30;99.90
54431;DHT22;40342;52.998;5.862;2023-06-24T06:26:23;19.40;99.90
54431;DHT22;40342;52.998;5.862;2023-06-24T06:28:48;19.40;99.90
54431;DHT22;40342;52.998;5.862;2023-06-24T06:31:15;19.50;99.90
54431;DHT22;40342;52.998;5.862;2023-06-24T06:33:41;19.60;99.90
54431;DHT22;40342;52.998;5.862;2023-06-24T06:36:06;19.60;99.90
54431;DHT22;40342;52.998;5.862;2023-06-24T06:38:33;19.70;99.90
54431;DHT22;40342;52.998;5.862;2023-06-24T06:40:59;19.70;99.90
54431;DHT22;40342;52.998;5.862;2023-06-24T06:43:25;19.80;99.90
54431;DHT22;40342;52.998;5.862;2023-06-24T06:45:50;19.90;99.90
54431;DHT22;40342;52.998;5.862;2023-06-24T06:48:16;19.90;99.90
54431;DHT22;40342;52.998;5.862;2023-06-24T06:50:41;20.00;99.90
54431;DHT22;40342;52.998;5.862;2023-06-24T06:53:07;20.10;99.90
54431;DHT22;40342;52.998;5.862;2023-06-24T06:55:32;20.10;99.90
54431;DHT22;40342;52.998;5.862;2023-06-24T06:57:58;20.20;99.90
54431;DHT22;40342;52.998;5.862;2023-06-24T07:00:24;20.20;99.90
54431;DHT22;40342;52.998;5.862;2023-06-24T07:02:49;20.30;99.90
54431;DHT22;40342;52.998;5.862;2023-06-24T07:05:15;20.40;99.90
54431;DHT22;40342;52.998;5.862;2023-06-24T07:07:40;20.40;99.90
54431;DHT22;40342;52.998;5.862;2023-06-24T07:10:07;20.40;99.90
54431;DHT22;40342;52.998;5.862;2023-06-24T07:12:32;20.50;99.90
54431;DHT22;40342;52.998;5.862;2023-06-24T07:14:58;20.60;99.90
54431;DHT22;40342;52.998;5.862;2023-06-24T07:17:24;20.60;99.90
54431;DHT22;40342;52.998;5.862;2023-06-24T07:19:49;20.70;99.90
54431;DHT22;40342;52.998;5.862;2023-06-24T07:22:15;20.80;99.90
54431;DHT22;40342;52.998;5.862;2023-06-24T07:24:41;20.80;99.90
54431;DHT22;40342;52.998;5.862;2023-06-24T07:27:07;20.90;99.90
54431;DHT22;40342;52.998;5.862;2023-06-24T07:29:33;20.90;99.90
54431;DHT22;40342;52.998;5.862;2023-06-24T07:31:58;20.90;99.90
54431;DHT22;40342;52.998;5.862;2023-06-24T07:34:24;21.00;99.90
54431;DHT22;40342;52.998;5.862;2023-06-24T07:36:49;21.00;99.90
54431;DHT22;40342;52.998;5.862;2023-06-24T07:39:16;21.00;99.90
54431;DHT22;40342;52.998;5.862;2023-06-24T07:41:42;21.00;99.90
54431;DHT22;40342;52.998;5.862;2023-06-24T07:44:08;21.10;99.90
54431;DHT22;40342;52.998;5.862;2023-06-24T07:46:34;21.20;99.90
54431;DHT22;40342;52.998;5.862;2023-06-24T07:49:00;21.20;99.90
54431;DHT22;40342;52.998;5.862;2023-06-24T07:51:26;21.20;99.90
54431;DHT22;40342;52.998;5.862;2023-06-24T07:53:52;21.30;99.90
54431;DHT22;40342;52.998;5.862;2023-06-24T07:56:18;21.30;99.90
54431;DHT22;40342;52.998;5.862;2023-06-24T07:58:43;21.30;99.90
54431;DHT22;40342;52.998;5.862;2023-06-24T08:01:09;21.30;99.90
54431;DHT22;40342;52.998;5.862;2023-06-24T08:03:34;21.40;99.90
54431;DHT22;40342;52.998;5.862;2023-06-24T08:06:02;21.40;99.90
54431;DHT22;40342;52.998;5.862;2023-06-24T08:08:28;21.50;99.90
54431;DHT22;40342;52.998;5.862;2023-06-24T08:10:53;21.60;99.90
54431;DHT22;40342;52.998;5.862;2023-06-24T08:13:19;21.60;99.90
54431;DHT22;40342;52.998;5.862;2023-06-24T08:15:45;21.70;99.90
54431;DHT22;40342;52.998;5.862;2023-06-24T08:18:10;21.80;99.90
54431;DHT22;40342;52.998;5.862;2023-06-24T08:20:36;21.80;99.90
54431;DHT22;40342;52.998;5.862;2023-06-24T08:23:04;21.90;99.90
54431;DHT22;40342;52.998;5.862;2023-06-24T08:25:29;22.00;99.90
54431;DHT22;40342;52.998;5.862;2023-06-24T08:27:56;22.10;99.90
54431;DHT22;40342;52.998;5.862;2023-06-24T08:30:21;22.20;99.90
54431;DHT22;40342;52.998;5.862;2023-06-24T08:32:47;22.30;99.90
54431;DHT22;40342;52.998;5.862;2023-06-24T08:35:12;22.40;99.90
54431;DHT22;40342;52.998;5.862;2023-06-24T08:37:38;22.50;99.90
54431;DHT22;40342;52.998;5.862;2023-06-24T08:40:04;22.50;99.90
54431;DHT22;40342;52.998;5.862;2023-06-24T08:42:30;22.60;99.90
54431;DHT22;40342;52.998;5.862;2023-06-24T08:44:56;22.70;99.90
54431;DHT22;40342;52.998;5.862;2023-06-24T08:47:24;22.80;99.90
54431;DHT22;40342;52.998;5.862;2023-06-24T08:49:53;22.80;99.90
54431;DHT22;40342;52.998;5.862;2023-06-24T08:52:25;22.90;99.90
54431;DHT22;40342;52.998;5.862;2023-06-24T08:54:52;23.00;99.90
54431;DHT22;40342;52.998;5.862;2023-06-24T08:57:20;23.00;99.90
54431;DHT22;40342;52.998;5.862;2023-06-24T08:59:46;23.10;99.90
54431;DHT22;40342;52.998;5.862;2023-06-24T09:02:11;23.10;99.90
54431;DHT22;40342;52.998;5.862;2023-06-24T09:04:39;23.10;99.90
54431;DHT22;40342;52.998;5.862;2023-06-24T09:07:05;23.30;99.90
54431;DHT22;40342;52.998;5.862;2023-06-24T09:09:30;23.40;99.90
54431;DHT22;40342;52.998;5.862;2023-06-24T09:11:57;23.40;99.90
54431;DHT22;40342;52.998;5.862;2023-06-24T09:14:29;23.50;99.90
54431;DHT22;40342;52.998;5.862;2023-06-24T09:16:59;23.60;99.90
54431;DHT22;40342;52.998;5.862;2023-06-24T09:19:32;23.80;99.90
54431;DHT22;40342;52.998;5.862;2023-06-24T09:22:06;23.90;99.90
54431;DHT22;40342;52.998;5.862;2023-06-24T09:24:36;24.00;99.90
54431;DHT22;40342;52.998;5.862;2023-06-24T09:27:03;24.10;99.90
54431;DHT22;40342;52.998;5.862;2023-06-24T09:29:33;24.10;99.90
54431;DHT22;40342;52.998;5.862;2023-06-24T09:31:59;24.10;99.90
54431;DHT22;40342;52.998;5.862;2023-06-24T09:34:27;24.20;99.90
54431;DHT22;40342;52.998;5.862;2023-06-24T09:36:55;24.30;99.90
54431;DHT22;40342;52.998;5.862;2023-06-24T09:39:21;24.30;99.90
54431;DHT22;40342;52.998;5.862;2023-06-24T09:41:51;24.30;99.90
54431;DHT22;40342;52.998;5.862;2023-06-24T09:44:17;24.30;99.90
54431;DHT22;40342;52.998;5.862;2023-06-24T09:46:44;24.40;99.90
54431;DHT22;40342;52.998;5.862;2023-06-24T09:49:10;24.50;99.90
54431;DHT22;40342;52.998;5.862;2023-06-24T09:51:43;24.60;99.90
54431;DHT22;40342;52.998;5.862;2023-06-24T09:54:10;24.70;99.90
54431;DHT22;40342;52.998;5.862;2023-06-24T09:56:37;24.80;99.90
54431;DHT22;40342;52.998;5.862;2023-06-24T09:59:05;24.90;99.90
54431;DHT22;40342;52.998;5.862;2023-06-24T10:01:32;25.10;99.90
54431;DHT22;40342;52.998;5.862;2023-06-24T10:04:01;25.10;99.90
54431;DHT22;40342;52.998;5.862;2023-06-24T10:06:28;25.20;99.90
54431;DHT22;40342;52.998;5.862;2023-06-24T10:08:54;25.10;99.90
54431;DHT22;40342;52.998;5.862;2023-06-24T10:11:20;25.20;99.90
54431;DHT22;40342;52.998;5.862;2023-06-24T10:13:46;25.30;99.90
54431;DHT22;40342;52.998;5.862;2023-06-24T10:16:12;25.40;99.90
54431;DHT22;40342;52.998;5.862;2023-06-24T10:18:39;25.50;99.90
54431;DHT22;40342;52.998;5.862;2023-06-24T10:21:06;25.60;99.90
54431;DHT22;40342;52.998;5.862;2023-06-24T10:26:24;25.70;99.90
54431;DHT22;40342;52.998;5.862;2023-06-24T10:34:53;25.90;99.90
54431;DHT22;40342;52.998;5.862;2023-06-24T10:37:32;26.00;99.90
54431;DHT22;40342;52.998;5.862;2023-06-24T10:39:59;26.10;99.90
54431;DHT22;40342;52.998;5.862;2023-06-24T10:42:36;26.10;99.90
54431;DHT22;40342;52.998;5.862;2023-06-24T10:45:22;26.20;99.90
54431;DHT22;40342;52.998;5.862;2023-06-24T10:47:51;26.30;99.90
54431;DHT22;40342;52.998;5.862;2023-06-24T10:50:22;26.40;99.90
54431;DHT22;40342;52.998;5.862;2023-06-24T10:52:50;26.50;99.90
54431;DHT22;40342;52.998;5.862;2023-06-24T10:55:22;26.60;99.90
54431;DHT22;40342;52.998;5.862;2023-06-24T10:57:49;26.70;99.90
54431;DHT22;40342;52.998;5.862;2023-06-24T11:00:15;26.80;99.90
54431;DHT22;40342;52.998;5.862;2023-06-24T11:02:41;26.80;99.90
54431;DHT22;40342;52.998;5.862;2023-06-24T11:05:07;26.80;99.90
54431;DHT22;40342;52.998;5.862;2023-06-24T11:07:34;26.90;99.90
54431;DHT22;40342;52.998;5.862;2023-06-24T11:10:10;26.90;98.90
54431;DHT22;40342;52.998;5.862;2023-06-24T11:12:37;27.00;98.90
54431;DHT22;40342;52.998;5.862;2023-06-24T11:15:05;27.10;98.70
54431;DHT22;40342;52.998;5.862;2023-06-24T11:17:32;27.10;99.30
54431;DHT22;40342;52.998;5.862;2023-06-24T11:19:58;27.10;99.00
54431;DHT22;40342;52.998;5.862;2023-06-24T11:22:25;27.10;98.20
54431;DHT22;40342;52.998;5.862;2023-06-24T11:24:51;27.20;99.10
54431;DHT22;40342;52.998;5.862;2023-06-24T11:27:23;27.20;98.60
54431;DHT22;40342;52.998;5.862;2023-06-24T11:29:48;27.30;99.70
54431;DHT22;40342;52.998;5.862;2023-06-24T11:32:16;27.50;99.00
54431;DHT22;40342;52.998;5.862;2023-06-24T11:34:42;27.60;98.20
54431;DHT22;40342;52.998;5.862;2023-06-24T11:37:12;27.50;97.70
54431;DHT22;40342;52.998;5.862;2023-06-24T11:39:38;27.40;98.20
54431;DHT22;40342;52.998;5.862;2023-06-24T11:42:06;27.40;98.10
54431;DHT22;40342;52.998;5.862;2023-06-24T11:44:33;27.40;98.40
54431;DHT22;40342;52.998;5.862;2023-06-24T11:47:06;27.40;97.30
54431;DHT22;40342;52.998;5.862;2023-06-24T11:49:32;27.60;97.10
54431;DHT22;40342;52.998;5.862;2023-06-24T11:51:57;27.70;96.60
54431;DHT22;40342;52.998;5.862;2023-06-24T11:54:23;27.70;97.10
54431;DHT22;40342;52.998;5.862;2023-06-24T11:56:52;27.70;96.50
54431;DHT22;40342;52.998;5.862;2023-06-24T11:59:23;27.80;96.70
54431;DHT22;40342;52.998;5.862;2023-06-24T12:01:55;27.90;97.60
54431;DHT22;40342;52.998;5.862;2023-06-24T12:04:22;28.00;96.50
54431;DHT22;40342;52.998;5.862;2023-06-24T12:06:52;28.10;97.40
54431;DHT22;40342;52.998;5.862;2023-06-24T12:09:17;28.30;98.00
54431;DHT22;40342;52.998;5.862;2023-06-24T12:11:43;28.40;97.90
54431;DHT22;40342;52.998;5.862;2023-06-24T12:14:09;28.50;96.00
54431;DHT22;40342;52.998;5.862;2023-06-24T12:16:34;28.60;95.40
54431;DHT22;40342;52.998;5.862;2023-06-24T12:19:00;28.50;97.10
54431;DHT22;40342;52.998;5.862;2023-06-24T12:21:26;28.50;96.80
54431;DHT22;40342;52.998;5.862;2023-06-24T12:23:51;28.30;96.60
54431;DHT22;40342;52.998;5.862;2023-06-24T12:26:17;28.00;96.40
54431;DHT22;40342;52.998;5.862;2023-06-24T12:28:42;27.80;97.40
54431;DHT22;40342;52.998;5.862;2023-06-24T12:31:08;27.80;97.90
54431;DHT22;40342;52.998;5.862;2023-06-24T12:33:33;27.90;98.40
54431;DHT22;40342;52.998;5.862;2023-06-24T12:35:59;27.90;97.60
54431;DHT22;40342;52.998;5.862;2023-06-24T12:38:25;27.80;97.30
54431;DHT22;40342;52.998;5.862;2023-06-24T12:40:50;27.60;97.70
54431;DHT22;40342;52.998;5.862;2023-06-24T12:43:16;27.60;98.40
54431;DHT22;40342;52.998;5.862;2023-06-24T12:45:42;27.70;99.00
54431;DHT22;40342;52.998;5.862;2023-06-24T12:48:12;27.80;98.20
54431;DHT22;40342;52.998;5.862;2023-06-24T12:50:38;27.90;98.60
54431;DHT22;40342;52.998;5.862;2023-06-24T12:53:03;28.00;98.50
54431;DHT22;40342;52.998;5.862;2023-06-24T12:55:30;28.10;98.50
54431;DHT22;40342;52.998;5.862;2023-06-24T12:57:56;28.30;98.60
54431;DHT22;40342;52.998;5.862;2023-06-24T13:00:23;28.40;97.90
54431;DHT22;40342;52.998;5.862;2023-06-24T13:02:49;28.50;98.10
54431;DHT22;40342;52.998;5.862;2023-06-24T13:05:15;28.70;97.70
54431;DHT22;40342;52.998;5.862;2023-06-24T13:07:41;28.80;97.10
54431;DHT22;40342;52.998;5.862;2023-06-24T13:10:07;28.90;97.10
54431;DHT22;40342;52.998;5.862;2023-06-24T13:12:33;29.00;96.80
54431;DHT22;40342;52.998;5.862;2023-06-24T13:14:59;29.00;96.80
54431;DHT22;40342;52.998;5.862;2023-06-24T13:17:24;29.10;97.60
54431;DHT22;40342;52.998;5.862;2023-06-24T13:19:51;29.10;97.20
54431;DHT22;40342;52.998;5.862;2023-06-24T13:22:16;29.20;97.40
54431;DHT22;40342;52.998;5.862;2023-06-24T13:24:42;29.30;97.20
54431;DHT22;40342;52.998;5.862;2023-06-24T13:27:08;29.30;95.80
54431;DHT22;40342;52.998;5.862;2023-06-24T13:29:33;29.30;96.20
54431;DHT22;40342;52.998;5.862;2023-06-24T13:31:59;29.40;96.50
54431;DHT22;40342;52.998;5.862;2023-06-24T13:34:24;29.40;96.80
54431;DHT22;40342;52.998;5.862;2023-06-24T13:36:50;29.50;96.70
54431;DHT22;40342;52.998;5.862;2023-06-24T13:39:15;29.60;96.20
54431;DHT22;40342;52.998;5.862;2023-06-24T13:41:43;29.50;95.90
54431;DHT22;40342;52.998;5.862;2023-06-24T13:44:09;29.50;95.00
54431;DHT22;40342;52.998;5.862;2023-06-24T13:46:35;29.50;95.60
54431;DHT22;40342;52.998;5.862;2023-06-24T13:49:01;29.50;96.00
54431;DHT22;40342;52.998;5.862;2023-06-24T13:51:27;29.50;94.90
54431;DHT22;40342;52.998;5.862;2023-06-24T13:53:53;29.50;94.90
54431;DHT22;40342;52.998;5.862;2023-06-24T13:56:23;29.40;95.40
54431;DHT22;40342;52.998;5.862;2023-06-24T13:58:50;29.40;95.30
54431;DHT22;40342;52.998;5.862;2023-06-24T14:01:16;29.40;95.80
54431;DHT22;40342;52.998;5.862;2023-06-24T14:03:42;29.40;95.40
54431;DHT22;40342;52.998;5.862;2023-06-24T14:06:08;29.50;96.20
54431;DHT22;40342;52.998;5.862;2023-06-24T14:08:34;29.50;93.70
54431;DHT22;40342;52.998;5.862;2023-06-24T14:11:00;29.40;93.40
54431;DHT22;40342;52.998;5.862;2023-06-24T14:13:26;29.30;93.60
54431;DHT22;40342;52.998;5.862;2023-06-24T14:15:53;29.20;94.10
54431;DHT22;40342;52.998;5.862;2023-06-24T14:18:18;29.20;93.40
54431;DHT22;40342;52.998;5.862;2023-06-24T14:20:44;29.20;93.50
54431;DHT22;40342;52.998;5.862;2023-06-24T14:23:10;29.20;93.40
54431;DHT22;40342;52.998;5.862;2023-06-24T14:25:35;29.20;94.60
54431;DHT22;40342;52.998;5.862;2023-06-24T14:28:03;29.20;93.60
54431;DHT22;40342;52.998;5.862;2023-06-24T14:30:29;29.20;94.00
54431;DHT22;40342;52.998;5.862;2023-06-24T14:32:55;29.20;94.50
54431;DHT22;40342;52.998;5.862;2023-06-24T14:35:21;29.20;94.80
54431;DHT22;40342;52.998;5.862;2023-06-24T14:37:46;29.20;94.40
54431;DHT22;40342;52.998;5.862;2023-06-24T14:40:12;29.20;93.90
54431;DHT22;40342;52.998;5.862;2023-06-24T14:42:37;29.10;93.20
54431;DHT22;40342;52.998;5.862;2023-06-24T14:45:03;29.10;93.20
54431;DHT22;40342;52.998;5.862;2023-06-24T14:47:29;28.90;93.60
54431;DHT22;40342;52.998;5.862;2023-06-24T14:49:57;28.80;93.40
54431;DHT22;40342;52.998;5.862;2023-06-24T14:52:22;28.80;93.40
54431;DHT22;40342;52.998;5.862;2023-06-24T14:54:48;28.70;92.80
54431;DHT22;40342;52.998;5.862;2023-06-24T14:57:14;28.50;93.30
54431;DHT22;40342;52.998;5.862;2023-06-24T14:59:41;28.30;93.20
54431;DHT22;40342;52.998;5.862;2023-06-24T15:02:08;28.30;93.80
54431;DHT22;40342;52.998;5.862;2023-06-24T15:04:35;28.30;94.30
54431;DHT22;40342;52.998;5.862;2023-06-24T15:07:01;28.30;93.50
54431;DHT22;40342;52.998;5.862;2023-06-24T15:09:26;28.20;93.80
54431;DHT22;40342;52.998;5.862;2023-06-24T15:11:52;28.20;93.00
54431;DHT22;40342;52.998;5.862;2023-06-24T15:14:18;28.20;93.10
54431;DHT22;40342;52.998;5.862;2023-06-24T15:16:44;28.20;93.50
54431;DHT22;40342;52.998;5.862;2023-06-24T15:19:09;28.20;93.40
54431;DHT22;40342;52.998;5.862;2023-06-24T15:21:35;28.20;93.90
54431;DHT22;40342;52.998;5.862;2023-06-24T15:24:01;28.10;92.90
54431;DHT22;40342;52.998;5.862;2023-06-24T15:26:26;28.10;92.90
54431;DHT22;40342;52.998;5.862;2023-06-24T15:28:52;28.00;93.00
54431;DHT22;40342;52.998;5.862;2023-06-24T15:31:19;28.00;92.70
54431;DHT22;40342;52.998;5.862;2023-06-24T15:33:44;28.00;92.60
54431;DHT22;40342;52.998;5.862;2023-06-24T15:36:10;27.90;92.60
54431;DHT22;40342;52.998;5.862;2023-06-24T15:38:36;27.90;93.20
54431;DHT22;40342;52.998;5.862;2023-06-24T15:41:01;27.80;93.10
54431;DHT22;40342;52.998;5.862;2023-06-24T15:43:27;27.80;93.50